Nearby METAR Reports

 

CYKA - Kamloops Airport
Distance from station: SSW 65km
Updated: 2023-02-09 03:18
Overcast
Overcast
 Wind from ESE
Wind: ESE 31 km/h, Gust: 44 km/h
Temperature: 1°C
Wind Chill: -5°C
Dew Point: -1°C
Humidity: 87%
Barometer: 1028.1 hPa
Clouds: Overcast
Visibility: 48 km
Cloud details: Mostly cloudy 1676 m
Overcast 3048 m
2023/02/09 11:18 CYKA 091118Z 11017G24KT 30SM BKN055 OVC100 01/M01 A3036 RMK SC5AC3 SLP297
CWSL - Salmon Arm Autob
Distance from station: SE 90km
Updated: 2023-02-09 04:00

 Wind from SSW
Wind: SSW 2 km/h
Temperature: -1°C
Dew Point: -2°C
Humidity: 93%
2023/02/09 12:00 CWSL 091200Z AUTO 21001KT M01/M02 RMK AO1 SOG 09 4000 SLP325 T10081022
CYIN - Bleibler Ranch
Distance from station: W 103km
Updated: 2023-02-09 04:00
Overcast
Overcast
 Wind from SSE
Wind: SSE 39 km/h, Gust: 56 km/h
Temperature: -3°C
Wind Chill: -11°C
Dew Point: -7°C
Humidity: 74%
Barometer: 1019.3 hPa
Clouds: Overcast
Visibility: 14 km
Cloud details: Partly cloudy 3048 m
Overcast 3658 m
2023/02/09 12:00 CYIN 091200Z AUTO 15021G30KT 9SM SCT100 OVC120 M03/M07 A3010 RMK SLP234
 
CYCP - Blue River (man)
Distance from station: NNE 116km
Updated: 2023-02-08 16:00
NOT Current
Partly cloudy
Partly cloudy
 Wind from varies
Wind: varies 4 km/h
Temperature: 2°C
Dew Point: -1°C
Humidity: 81%
Barometer: 1026.8 hPa
Clouds: Partly cloudy
Visibility: 24 km
Cloud details: Partly cloudy 1707 m
Partly cloudy 2743 m
2023/02/09 00:00 CYCP 090000Z VRB02KT 15SM SCT056 SCT090 02/M01 A3032 RMK SC3AC1 LAST STFD OBS/NXT 091400 SLP303
CYLW - Kelowna Airport
Distance from station: SSE 157km
Updated: 2023-02-09 04:00
Overcast
Overcast
 Wind from ENE
Wind: ENE 6 km/h
Temperature: 0°C
Dew Point: -3°C
Humidity: 80%
Barometer: 1030.1 hPa
Clouds: Overcast
Visibility: 14 km
Cloud details: Overcast 1524 m
2023/02/09 12:00 CYLW 091200Z AUTO 07003KT 9SM OVC050 M00/M03 A3042 RMK SLP320
CYWL - Williams Lake Airport
Distance from station: NW 164km
Updated: 2023-02-09 03:00
Light snow, Overcast
Light snow, Overcast
 Wind from ESE
Wind: ESE 41 km/h, Gust: 59 km/h
Temperature: -3°C
Wind Chill: -11°C
Dew Point: -5°C
Humidity: 86%
Barometer: 1019.6 hPa
Summary: Light Snow
Clouds: Overcast
Visibility: 10 km
Cloud details: Overcast 3658 m
2023/02/09 11:00 CYWL 091100Z 12022G32KT 6SM -SN OVC120 M03/M05 A3011 RMK AC8 SLP239